Time;durP1;ratioP1;P1;durP2;ratioP2;P2;SDS_P1;SDS_P2;PMS_P1;PMS_P2;Temp;Humidity;BMP_temperature;BMP_pressure;BME280_temperature;BME280_humidity;BME280_pressure;Samples;Min_cycle;Max_cycle;Signal;HPM_P1;HPM_P2
2021/08/26 00:06:08;;;;;;;3.53;1.92;;;;;;;;;;5111439;28;20058;-66
2021/08/26 00:11:49;;;;;;;5.50;2.55;;;;;;;;;;5111654;27;20840;-66
2021/08/26 00:15:05;;;;;;;4.25;2.08;;;;;;;;;;5111211;27;20388;-68
2021/08/26 00:21:04;;;;;;;5.03;2.40;;;;;;;;;;5111455;27;20388;-65
2021/08/26 00:23:30;;;;;;;4.65;2.33;;;;;;;;;;5109654;28;20106;-68
2021/08/26 00:25:56;;;;;;;4.07;1.90;;;;;;;;;;5111655;28;20053;-65
2021/08/26 00:28:23;;;;;;;4.65;2.40;;;;;;;;;;5111518;28;20028;-66
2021/08/26 00:30:49;;;;;;;5.88;2.10;;;;;;;;;;5110807;28;20472;-65
2021/08/26 00:35:23;;;;;;;5.63;2.10;;;;;;;;;;5111817;27;20388;-68
2021/08/26 00:37:49;;;;;;;4.82;2.50;;;;;;;;;;5110940;28;20028;-65
2021/08/26 00:40:16;;;;;;;4.35;2.10;;;;;;;;;;5111560;28;20123;-65
2021/08/26 00:46:54;;;;;;;5.35;2.60;;;;;;;;;;5111966;27;20401;-65
2021/08/26 00:49:20;;;;;;;4.93;2.35;;;;;;;;;;5111753;28;20016;-65
2021/08/26 00:53:27;;;;;;;4.30;2.15;;;;;;;;;;5071224;28;20425;-66
2021/08/26 00:55:53;;;;;;;4.53;2.20;;;;;;;;;;5070690;28;20489;-66
2021/08/26 00:58:19;;;;;;;4.47;1.98;;;;;;;;;;5070326;28;20075;-66
2021/08/26 01:02:52;;;;;;;6.97;2.58;;;;;;;;;;5111749;27;20404;-66
2021/08/26 01:05:24;;;;;;;4.10;2.22;;;;;;;;;;5111079;28;20396;-66
2021/08/26 01:08:12;;;;;;;4.57;2.03;;;;;;;;;;5111326;27;21025;-66
2021/08/26 01:10:41;;;;;;;3.97;2.15;;;;;;;;;;5111595;28;20028;-66
2021/08/26 01:13:07;;;;;;;3.50;1.88;;;;;;;;;;5111752;28;20024;-66
2021/08/26 01:15:33;;;;;;;3.28;1.80;;;;;;;;;;5111214;28;20050;-66
2021/08/26 01:17:59;;;;;;;5.38;2.30;;;;;;;;;;5110706;28;20031;-66
2021/08/26 01:20:26;;;;;;;4.90;2.63;;;;;;;;;;5109879;28;20066;-66
2021/08/26 01:22:52;;;;;;;4.68;2.40;;;;;;;;;;5111074;28;20047;-66
2021/08/26 01:25:23;;;;;;;3.63;1.88;;;;;;;;;;5109417;28;20530;-66
2021/08/26 01:28:51;;;;;;;4.40;1.98;;;;;;;;;;5071496;28;20476;-65
2021/08/26 01:31:18;;;;;;;4.15;2.15;;;;;;;;;;5070801;28;20496;-65
2021/08/26 01:33:46;;;;;;;5.18;2.42;;;;;;;;;;5070322;28;20074;-65
2021/08/26 01:37:02;;;;;;;5.72;2.30;;;;;;;;;;5111947;27;20924;-65
2021/08/26 01:39:28;;;;;;;4.05;2.15;;;;;;;;;;5111037;28;20383;-66
2021/08/26 01:41:55;;;;;;;5.68;2.90;;;;;;;;;;5111434;28;20555;-66
2021/08/26 01:44:23;;;;;;;6.22;2.53;;;;;;;;;;5111431;28;20043;-65
2021/08/26 01:46:49;;;;;;;3.88;1.80;;;;;;;;;;5111046;28;20030;-65
2021/08/26 01:49:16;;;;;;;4.50;2.00;;;;;;;;;;5111349;28;20028;-66
2021/08/26 01:53:26;;;;;;;4.50;2.00;;;;;;;;;;5111459;27;20396;-66
2021/08/26 01:55:53;;;;;;;3.92;1.95;;;;;;;;;;5111330;28;20388;-66
2021/08/26 01:58:19;;;;;;;4.03;2.17;;;;;;;;;;5111339;28;20019;-66
2021/08/26 02:02:56;;;;;;;4.13;2.38;;;;;;;;;;5111700;27;20521;-65
2021/08/26 02:05:22;;;;;;;3.50;1.98;;;;;;;;;;5111540;28;20020;-65
2021/08/26 02:07:49;;;;;;;3.88;1.92;;;;;;;;;;5110768;28;20103;-66
2021/08/26 02:10:16;;;;;;;3.58;1.88;;;;;;;;;;5111285;28;20027;-66
2021/08/26 02:13:12;;;;;;;3.53;2.00;;;;;;;;;;5112192;27;20884;-66
2021/08/26 02:15:38;;;;;;;3.63;1.77;;;;;;;;;;5111017;28;20063;-66
2021/08/26 02:20:16;;;;;;;5.03;2.33;;;;;;;;;;5112041;27;20893;-65
2021/08/26 02:22:42;;;;;;;3.15;1.70;;;;;;;;;;5109680;28;20198;-65
2021/08/26 02:25:27;;;;;;;5.72;1.92;;;;;;;;;;5112060;27;20373;-65
2021/08/26 02:27:53;;;;;;;4.75;2.17;;;;;;;;;;5110065;28;20445;-65
2021/08/26 02:30:19;;;;;;;4.22;2.03;;;;;;;;;;5110876;28;20099;-65
2021/08/26 02:33:43;;;;;;;3.75;2.10;;;;;;;;;;5111476;27;20419;-67
2021/08/26 02:36:09;;;;;;;3.20;1.90;;;;;;;;;;5126664;28;20028;-66
2021/08/26 02:38:36;;;;;;;2.90;1.70;;;;;;;;;;5111472;28;20099;-65
2021/08/26 02:41:02;;;;;;;3.75;1.98;;;;;;;;;;5111494;28;20091;-66
2021/08/26 02:43:28;;;;;;;5.25;1.98;;;;;;;;;;5110896;28;20024;-66
2021/08/26 02:47:05;;;;;;;3.35;1.77;;;;;;;;;;5111355;27;20758;-66
2021/08/26 02:51:06;;;;;;;3.47;1.80;;;;;;;;;;5110942;27;20442;-68
2021/08/26 02:53:32;;;;;;;5.13;2.20;;;;;;;;;;5111534;28;20110;-65
2021/08/26 02:57:28;;;;;;;4.22;2.00;;;;;;;;;;5111212;27;20521;-66
2021/08/26 02:59:54;;;;;;;4.78;2.00;;;;;;;;;;5111342;28;20020;-66
2021/08/26 03:02:20;;;;;;;5.10;2.55;;;;;;;;;;5111208;28;20095;-65
2021/08/26 03:04:46;;;;;;;6.75;3.17;;;;;;;;;;5110985;28;20027;-65
2021/08/26 03:07:46;;;;;;;4.72;2.38;;;;;;;;;;5112180;27;20392;-65
2021/08/26 03:12:47;;;;;;;4.53;2.22;;;;;;;;;;5131865;27;20305;-67
2021/08/26 03:17:51;;;;;;;8.40;2.72;;;;;;;;;;5111420;27;20438;-65
2021/08/26 03:22:23;;;;;;;5.07;2.63;;;;;;;;;;5112185;27;20397;-65
2021/08/26 03:25:14;;;;;;;5.10;2.25;;;;;;;;;;5111308;27;20437;-68
2021/08/26 03:27:41;;;;;;;3.40;2.05;;;;;;;;;;5111590;28;20365;-65
2021/08/26 03:30:07;;;;;;;3.63;2.17;;;;;;;;;;5111398;28;20028;-65
2021/08/26 03:32:34;;;;;;;4.60;2.17;;;;;;;;;;5110861;28;20024;-66
2021/08/26 03:35:00;;;;;;;4.65;2.22;;;;;;;;;;5111424;28;20027;-66
2021/08/26 03:37:27;;;;;;;6.88;3.05;;;;;;;;;;5111269;28;20145;-67
2021/08/26 03:39:53;;;;;;;5.90;2.90;;;;;;;;;;5110803;28;20093;-67
2021/08/26 03:43:01;;;;;;;4.28;2.40;;;;;;;;;;5111459;27;20392;-66
2021/08/26 03:45:27;;;;;;;3.70;2.40;;;;;;;;;;5111019;28;20480;-66
2021/08/26 03:47:53;;;;;;;3.80;2.03;;;;;;;;;;5111751;28;20526;-68
2021/08/26 03:50:19;;;;;;;4.75;2.53;;;;;;;;;;5111379;28;20035;-66
2021/08/26 03:56:25;;;;;;;4.57;2.47;;;;;;;;;;5112145;27;20389;-67
2021/08/26 03:58:51;;;;;;;4.82;2.05;;;;;;;;;;5111424;28;20484;-67
2021/08/26 04:01:18;;;;;;;5.05;2.25;;;;;;;;;;5110948;28;20084;-66
2021/08/26 04:03:44;;;;;;;4.00;1.92;;;;;;;;;;5111624;28;20020;-68
2021/08/26 04:06:46;;;;;;;4.28;2.70;;;;;;;;;;5111309;27;20389;-69
2021/08/26 04:10:14;;;;;;;5.75;2.67;;;;;;;;;;5131870;27;20665;-69
2021/08/26 04:12:40;;;;;;;5.53;2.58;;;;;;;;;;5111458;28;20027;-71
2021/08/26 04:16:46;;;;;;;5.10;2.53;;;;;;;;;;5112227;27;20384;-68
2021/08/26 04:19:12;;;;;;;6.43;2.58;;;;;;;;;;5111353;28;20031;-66
2021/08/26 04:21:38;;;;;;;5.00;2.70;;;;;;;;;;5111087;28;20038;-66
2021/08/26 04:24:04;;;;;;;6.43;3.22;;;;;;;;;;5109981;28;20020;-66
2021/08/26 04:26:31;;;;;;;5.75;2.63;;;;;;;;;;5111191;28;20027;-67
2021/08/26 04:28:57;;;;;;;3.83;2.20;;;;;;;;;;5109599;28;20472;-67
2021/08/26 04:31:23;;;;;;;3.85;2.33;;;;;;;;;;5111178;28;20054;-67
2021/08/26 04:35:47;;;;;;;6.13;2.60;;;;;;;;;;5070786;28;20784;-69
2021/08/26 04:38:13;;;;;;;4.93;2.47;;;;;;;;;;5070994;28;20056;-68
2021/08/26 04:40:39;;;;;;;5.28;2.63;;;;;;;;;;5071063;28;20123;-69
2021/08/26 04:45:13;;;;;;;4.70;2.58;;;;;;;;;;5111652;27;20593;-68
2021/08/26 04:47:40;;;;;;;4.22;2.70;;;;;;;;;;5111410;28;20024;-70
2021/08/26 04:50:06;;;;;;;6.10;3.05;;;;;;;;;;5109652;28;20077;-66
2021/08/26 04:52:32;;;;;;;7.20;2.50;;;;;;;;;;5110007;28;20503;-66
2021/08/26 04:54:58;;;;;;;5.43;2.58;;;;;;;;;;5111128;28;20084;-66
2021/08/26 04:57:25;;;;;;;5.90;3.10;;;;;;;;;;5111002;28;20402;-66
2021/08/26 04:59:51;;;;;;;4.82;2.40;;;;;;;;;;5111097;28;20084;-66
2021/08/26 05:02:17;;;;;;;4.63;2.60;;;;;;;;;;5111574;28;20489;-66
2021/08/26 05:04:43;;;;;;;4.97;2.90;;;;;;;;;;5110608;28;20059;-66
2021/08/26 05:07:09;;;;;;;5.72;2.63;;;;;;;;;;5109515;28;20487;-66
2021/08/26 05:09:36;;;;;;;5.15;2.72;;;;;;;;;;5110912;28;20084;-67
2021/08/26 05:12:04;;;;;;;5.97;2.55;;;;;;;;;;5109106;28;20024;-66
2021/08/26 05:14:31;;;;;;;3.78;2.33;;;;;;;;;;5108778;28;20026;-67
2021/08/26 05:19:48;;;;;;;4.97;2.70;;;;;;;;;;5109265;27;20408;-66
2021/08/26 05:22:15;;;;;;;5.45;2.30;;;;;;;;;;5109557;28;20114;-67
2021/08/26 05:24:41;;;;;;;5.63;2.92;;;;;;;;;;5108831;28;20043;-67
2021/08/26 05:27:07;;;;;;;6.25;2.63;;;;;;;;;;5109158;28;20047;-67
2021/08/26 05:29:34;;;;;;;5.75;2.70;;;;;;;;;;5109100;28;20384;-67
2021/08/26 05:32:00;;;;;;;5.53;2.30;;;;;;;;;;5127430;28;20380;-67
2021/08/26 05:34:26;;;;;;;4.50;2.42;;;;;;;;;;5111163;28;20050;-67
2021/08/26 05:36:52;;;;;;;5.93;2.92;;;;;;;;;;5111255;28;20502;-67
2021/08/26 05:39:18;;;;;;;6.82;2.45;;;;;;;;;;5110562;28;20039;-67
2021/08/26 05:41:58;;;;;;;5.72;2.78;;;;;;;;;;5050850;28;20413;-67
2021/08/26 05:44:24;;;;;;;6.90;3.63;;;;;;;;;;5050849;28;20537;-66
2021/08/26 05:49:03;;;;;;;6.30;3.17;;;;;;;;;;5111589;27;20404;-67
2021/08/26 05:52:56;;;;;;;5.60;3.03;;;;;;;;;;5111464;27;20393;-66
2021/08/26 05:56:22;;;;;;;5.28;2.75;;;;;;;;;;5071536;28;20413;-66
2021/08/26 05:58:49;;;;;;;5.75;2.92;;;;;;;;;;5070958;28;20035;-66
2021/08/26 06:01:15;;;;;;;5.30;2.55;;;;;;;;;;5070353;28;20029;-66
2021/08/26 06:03:41;;;;;;;6.90;2.83;;;;;;;;;;5070685;28;20044;-66
2021/08/26 06:06:07;;;;;;;5.60;2.72;;;;;;;;;;5066717;28;20048;-65
2021/08/26 06:11:10;;;;;;;6.50;3.33;;;;;;;;;;5111633;27;20400;-66
2021/08/26 06:13:56;;;;;;;6.15;3.25;;;;;;;;;;5114568;27;20514;-67
2021/08/26 06:16:22;;;;;;;7.72;3.30;;;;;;;;;;5116254;28;20075;-66
2021/08/26 06:18:57;;;;;;;5.53;2.70;;;;;;;;;;5069944;28;21004;-66
2021/08/26 06:22:53;;;;;;;6.20;3.13;;;;;;;;;;5069997;28;20469;-66
2021/08/26 06:25:19;;;;;;;7.18;2.28;;;;;;;;;;5070191;28;20425;-65
2021/08/26 06:27:45;;;;;;;6.22;3.20;;;;;;;;;;5069248;28;20108;-66
2021/08/26 06:30:12;;;;;;;6.95;3.17;;;;;;;;;;5069835;28;20028;-65
2021/08/26 06:32:39;;;;;;;7.07;3.00;;;;;;;;;;5070119;28;20083;-66
2021/08/26 06:35:06;;;;;;;10.57;3.95;;;;;;;;;;5069272;28;20075;-65
2021/08/26 06:37:33;;;;;;;8.68;2.70;;;;;;;;;;5070069;28;20025;-65
2021/08/26 06:39:59;;;;;;;6.07;3.20;;;;;;;;;;5070227;28;20071;-66
2021/08/26 06:42:25;;;;;;;6.28;3.15;;;;;;;;;;5068439;28;20036;-65
2021/08/26 06:44:51;;;;;;;5.95;3.00;;;;;;;;;;5069990;28;20075;-66
2021/08/26 06:47:18;;;;;;;5.85;2.78;;;;;;;;;;5070111;28;20382;-66
2021/08/26 06:49:45;;;;;;;6.50;3.20;;;;;;;;;;5069314;28;20158;-65
2021/08/26 06:52:11;;;;;;;6.07;3.00;;;;;;;;;;5068624;28;20032;-66
2021/08/26 06:54:37;;;;;;;8.30;3.28;;;;;;;;;;5069869;28;20021;-66
2021/08/26 06:57:05;;;;;;;5.40;2.33;;;;;;;;;;5068855;28;20443;-65
2021/08/26 06:59:31;;;;;;;6.68;3.10;;;;;;;;;;5066486;28;20107;-67
2021/08/26 07:01:58;;;;;;;5.43;2.97;;;;;;;;;;5069281;28;20502;-67
2021/08/26 07:04:24;;;;;;;5.47;2.53;;;;;;;;;;5069218;28;20025;-67
2021/08/26 07:06:54;;;;;;;6.20;3.22;;;;;;;;;;5067702;28;20119;-67
2021/08/26 07:09:21;;;;;;;9.80;4.15;;;;;;;;;;5064888;28;20013;-65
2021/08/26 07:11:48;;;;;;;4.85;2.65;;;;;;;;;;5068717;28;20519;-67
2021/08/26 07:16:13;;;;;;;6.30;3.15;;;;;;;;;;5109898;27;21000;-67
2021/08/26 07:18:40;;;;;;;5.10;2.80;;;;;;;;;;5109329;28;20028;-68
2021/08/26 07:21:06;;;;;;;4.82;2.72;;;;;;;;;;5109561;28;20535;-66
2021/08/26 07:23:32;;;;;;;4.43;2.30;;;;;;;;;;5110172;28;20534;-66
2021/08/26 07:25:59;;;;;;;6.90;3.15;;;;;;;;;;5110186;28;20103;-67
2021/08/26 07:28:25;;;;;;;8.85;3.25;;;;;;;;;;5109558;28;20027;-67
2021/08/26 07:32:21;;;;;;;6.68;2.88;;;;;;;;;;5109784;27;20389;-67
2021/08/26 07:34:48;;;;;;;7.13;3.40;;;;;;;;;;5108522;28;20016;-67
2021/08/26 07:37:14;;;;;;;5.15;3.13;;;;;;;;;;5108609;28;20024;-66
2021/08/26 07:39:40;;;;;;;5.68;3.03;;;;;;;;;;5108298;28;20024;-67
2021/08/26 07:42:06;;;;;;;6.45;2.45;;;;;;;;;;5107411;28;20492;-66
2021/08/26 07:44:32;;;;;;;7.22;3.05;;;;;;;;;;5107872;28;20103;-66
2021/08/26 07:46:59;;;;;;;7.43;3.10;;;;;;;;;;5108332;28;20024;-68
2021/08/26 07:49:25;;;;;;;6.30;3.00;;;;;;;;;;5110344;28;20020;-67
2021/08/26 07:51:51;;;;;;;5.82;3.03;;;;;;;;;;5110005;28;20063;-66
2021/08/26 07:55:11;;;;;;;10.32;4.40;;;;;;;;;;5110717;27;20974;-70
2021/08/26 07:57:38;;;;;;;6.78;3.67;;;;;;;;;;5110827;28;20051;-67
2021/08/26 08:01:28;;;;;;;8.45;4.68;;;;;;;;;;5110825;27;20396;-69
2021/08/26 08:03:54;;;;;;;9.73;5.57;;;;;;;;;;5110626;28;20422;-67
2021/08/26 08:06:20;;;;;;;13.40;6.40;;;;;;;;;;5110322;28;20020;-67
2021/08/26 08:08:47;;;;;;;11.35;6.00;;;;;;;;;;5109415;28;20027;-67
2021/08/26 08:14:06;;;;;;;10.98;4.78;;;;;;;;;;5110174;27;20705;-67
2021/08/26 08:16:32;;;;;;;7.97;4.63;;;;;;;;;;5110600;28;20035;-67
2021/08/26 08:18:58;;;;;;;9.98;4.63;;;;;;;;;;5110540;28;20392;-68
2021/08/26 08:21:24;;;;;;;7.78;4.13;;;;;;;;;;5110319;28;20020;-68
2021/08/26 08:24:13;;;;;;;6.07;3.60;;;;;;;;;;5110729;27;20385;-68
2021/08/26 08:26:59;;;;;;;8.07;4.13;;;;;;;;;;5110428;27;20665;-67
2021/08/26 08:29:25;;;;;;;6.63;3.15;;;;;;;;;;5110714;28;20028;-67
2021/08/26 08:31:51;;;;;;;13.48;4.50;;;;;;;;;;5109434;28;20077;-67
2021/08/26 08:34:18;;;;;;;7.13;3.72;;;;;;;;;;5097400;28;20028;-68
2021/08/26 08:36:44;;;;;;;7.72;4.35;;;;;;;;;;5089389;28;20436;-68
2021/08/26 08:39:10;;;;;;;9.15;5.15;;;;;;;;;;5090454;28;20021;-68
2021/08/26 08:43:25;;;;;;;6.65;3.80;;;;;;;;;;5110581;27;20439;-66
2021/08/26 08:45:53;;;;;;;7.50;3.83;;;;;;;;;;5110806;28;20024;-67
2021/08/26 08:48:20;;;;;;;7.93;4.68;;;;;;;;;;5107501;28;20027;-64
2021/08/26 08:50:46;;;;;;;8.55;4.50;;;;;;;;;;5109644;28;20058;-67
2021/08/26 08:53:15;;;;;;;8.45;4.47;;;;;;;;;;5110252;28;20026;-69
2021/08/26 08:58:18;;;;;;;8.43;3.92;;;;;;;;;;5068433;28;20822;-71
2021/08/26 09:00:45;;;;;;;6.20;3.65;;;;;;;;;;5069136;28;20173;-71
2021/08/26 09:03:12;;;;;;;6.28;3.58;;;;;;;;;;5068054;28;20024;-70
2021/08/26 09:05:38;;;;;;;;;;;;;;;;;;5070776;28;20074;-65
2021/08/26 09:08:04;;;;;;;;;;;;;;;;;;5070281;28;20351;-67
2021/08/26 09:10:30;;;;;;;;;;;;;;;;;;5069907;28;19905;-66
2021/08/26 09:12:56;;;;;;;;;;;;;;;;;;5070402;28;20327;-66
2021/08/26 09:15:23;;;;;;;;;;;;;;;;;;5070429;28;19912;-67
2021/08/26 09:17:49;;;;;;;;;;;;;;;;;;5068697;28;20293;-67
2021/08/26 09:20:15;;;;;;;;;;;;;;;;;;5070236;28;19904;-66
2021/08/26 09:22:41;;;;;;;;;;;;;;;;;;5068843;28;19904;-67
2021/08/26 09:25:07;;;;;;;;;;;;;;;;;;5069570;28;20264;-67
2021/08/26 09:27:33;;;;;;;;;;;;;;;;;;5069409;28;20755;-68
2021/08/26 09:29:59;;;;;;;;;;;;;;;;;;5069534;28;20365;-69
2021/08/26 09:32:25;;;;;;;;;;;;;;;;;;5068965;28;20046;-68
2021/08/26 09:35:31;;;;;;;;;;;;;;;;;;5111350;27;19912;-67
2021/08/26 09:37:57;;;;;;;;;;;;;;;;;;5111056;28;19955;-67
2021/08/26 09:42:56;;;;;;;;;;;;;;;;;;5109827;27;19918;-67
2021/08/26 09:45:22;;;;;;;;;;;;;;;;;;5109125;28;19912;-66
2021/08/26 09:47:48;;;;;;;;;;;;;;;;;;5110612;28;19908;-64
2021/08/26 09:50:15;;;;;;;;;;;;;;;;;;5118432;28;20309;-67
2021/08/26 09:52:41;;;;;;;;;;;;;;;;;;5114098;27;19916;-66
2021/08/26 09:55:07;;;;;;;;;;;;;;;;;;5110440;28;19908;-67
2021/08/26 09:59:17;;;;;;;;;;;;;;;;;;5090191;28;19917;-67
2021/08/26 10:01:43;;;;;;;;;;;;;;;;;;5089569;28;20098;-68
2021/08/26 10:04:09;;;;;;;;;;;;;;;;;;5090801;28;20002;-68
2021/08/26 10:06:35;;;;;;;;;;;;;;;;;;5090663;28;19961;-69
2021/08/26 10:09:01;;;;;;;;;;;;;;;;;;5084859;28;19916;-68
2021/08/26 10:11:27;;;;;;;;;;;;;;;;;;5090674;28;19908;-69
2021/08/26 10:13:53;;;;;;;;;;;;;;;;;;5089003;28;20284;-69
2021/08/26 10:16:19;;;;;;;;;;;;;;;;;;5090878;28;20425;-68
2021/08/26 10:18:45;;;;;;;;;;;;;;;;;;5090638;28;19916;-69
2021/08/26 10:21:11;;;;;;;;;;;;;;;;;;5089896;28;19931;-68
2021/08/26 10:23:37;;;;;;;;;;;;;;;;;;5089464;28;19909;-68
2021/08/26 10:26:05;;;;;;;;;;;;;;;;;;5088700;28;19924;-68
2021/08/26 10:28:31;;;;;;;;;;;;;;;;;;5087844;28;19916;-68
2021/08/26 10:30:58;;;;;;;9.97;5.90;;;;;;;;;;5081960;28;21011;-68
2021/08/26 10:34:21;;;;;;;10.27;5.32;;;;;;;;;;5068392;28;20882;-70
2021/08/26 10:36:59;;;;;;;11.30;6.53;;;;;;;;;;5070402;28;20045;-68
2021/08/26 10:39:30;;;;;;;9.27;5.53;;;;;;;;;;5069729;28;20533;-67
2021/08/26 10:41:57;;;;;;;9.07;5.65;;;;;;;;;;5069922;28;20481;-68
2021/08/26 10:44:43;;;;;;;10.25;6.03;;;;;;;;;;5069238;28;20020;-68
2021/08/26 10:47:10;;;;;;;9.13;5.78;;;;;;;;;;5070025;28;20056;-68
2021/08/26 10:49:56;;;;;;;8.85;6.18;;;;;;;;;;5069849;28;20017;-68
2021/08/26 10:52:40;;;;;;;10.00;5.63;;;;;;;;;;5068706;28;20040;-67
2021/08/26 10:55:07;;;;;;;9.90;5.85;;;;;;;;;;5067904;28;20403;-68
2021/08/26 10:57:33;;;;;;;11.65;6.03;;;;;;;;;;5069905;28;20053;-67
2021/08/26 10:59:59;;;;;;;8.43;5.32;;;;;;;;;;5070129;28;20028;-67
2021/08/26 11:02:40;;;;;;;10.85;6.10;;;;;;;;;;5069470;28;20072;-67
2021/08/26 11:05:25;;;;;;;12.50;5.95;;;;;;;;;;5069946;28;20029;-67
2021/08/26 11:07:51;;;;;;;8.45;5.32;;;;;;;;;;5070154;28;20053;-68
2021/08/26 11:10:27;;;;;;;8.77;5.22;;;;;;;;;;5068457;28;20081;-68
2021/08/26 11:12:53;;;;;;;8.77;5.32;;;;;;;;;;5068208;28;20060;-68
2021/08/26 11:15:26;;;;;;;8.20;5.60;;;;;;;;;;5066788;28;20025;-68
2021/08/26 11:17:52;;;;;;;14.82;7.28;;;;;;;;;;5068007;28;20477;-67
2021/08/26 11:20:29;;;;;;;14.02;6.32;;;;;;;;;;5069590;28;20036;-69
2021/08/26 11:23:05;;;;;;;9.98;6.13;;;;;;;;;;5067425;28;20120;-69
2021/08/26 11:25:32;;;;;;;9.40;5.95;;;;;;;;;;5067101;28;20501;-71
2021/08/26 11:28:21;;;;;;;11.52;6.05;;;;;;;;;;5068494;28;20481;-68
2021/08/26 11:30:47;;;;;;;11.40;5.45;;;;;;;;;;5063683;28;20093;-70
2021/08/26 11:33:27;;;;;;;13.88;5.80;;;;;;;;;;5069211;28;20501;-70
2021/08/26 11:35:53;;;;;;;10.93;6.13;;;;;;;;;;5068613;28;20413;-70
2021/08/26 11:38:19;;;;;;;11.93;6.25;;;;;;;;;;5067083;28;20020;-70
2021/08/26 11:40:46;;;;;;;11.65;6.43;;;;;;;;;;5067356;28;20020;-70
2021/08/26 11:43:14;;;;;;;11.13;5.80;;;;;;;;;;5067670;28;20080;-69
2021/08/26 11:45:40;;;;;;;9.38;5.50;;;;;;;;;;5054182;28;20053;-71
2021/08/26 11:48:09;;;;;;;9.18;5.60;;;;;;;;;;5052222;28;20115;-70
2021/08/26 11:50:41;;;;;;;10.77;6.93;;;;;;;;;;5054846;28;20028;-70
2021/08/26 11:54:23;;;;;;;10.05;5.70;;;;;;;;;;5110822;27;20393;-67
2021/08/26 11:56:54;;;;;;;9.25;5.38;;;;;;;;;;5110630;28;20028;-70
2021/08/26 11:59:24;;;;;;;10.65;6.47;;;;;;;;;;5108772;28;20058;-70
2021/08/26 12:01:51;;;;;;;10.40;5.07;;;;;;;;;;5109386;28;20020;-70
2021/08/26 12:04:17;;;;;;;10.27;5.35;;;;;;;;;;5109074;28;20476;-71
2021/08/26 12:06:49;;;;;;;12.10;6.95;;;;;;;;;;5109690;28;20055;-69
2021/08/26 12:09:15;;;;;;;10.35;6.18;;;;;;;;;;5110137;28;20016;-69
2021/08/26 12:11:42;;;;;;;9.70;5.72;;;;;;;;;;5107884;28;20538;-70
2021/08/26 12:14:09;;;;;;;9.40;5.57;;;;;;;;;;5109180;28;20067;-69
2021/08/26 12:16:36;;;;;;;9.07;5.13;;;;;;;;;;5105669;28;20015;-69
2021/08/26 12:19:05;;;;;;;11.30;5.95;;;;;;;;;;5104353;28;20077;-69
2021/08/26 12:21:32;;;;;;;10.65;6.97;;;;;;;;;;5108557;28;20407;-68
2021/08/26 12:23:58;;;;;;;10.25;5.93;;;;;;;;;;5108444;28;20044;-68
2021/08/26 12:26:24;;;;;;;8.00;5.15;;;;;;;;;;5108151;28;20106;-69
2021/08/26 12:29:02;;;;;;;8.52;5.20;;;;;;;;;;5097976;28;20095;-67
2021/08/26 12:31:29;;;;;;;8.82;5.75;;;;;;;;;;5108755;28;20046;-69
2021/08/26 12:33:59;;;;;;;13.30;6.40;;;;;;;;;;5109641;28;20036;-70
2021/08/26 12:36:25;;;;;;;11.30;6.88;;;;;;;;;;5091174;28;20020;-70
2021/08/26 12:38:51;;;;;;;12.07;6.20;;;;;;;;;;5110223;28;20019;-70
2021/08/26 12:41:19;;;;;;;9.98;5.90;;;;;;;;;;5108068;28;20090;-69
2021/08/26 12:43:53;;;;;;;8.57;5.68;;;;;;;;;;5107135;28;20027;-70
2021/08/26 12:46:21;;;;;;;8.18;5.15;;;;;;;;;;5108123;28;20416;-70
2021/08/26 12:48:48;;;;;;;9.50;5.43;;;;;;;;;;5106618;28;20092;-70
2021/08/26 12:51:23;;;;;;;9.50;6.28;;;;;;;;;;5108668;28;20024;-69
2021/08/26 12:54:10;;;;;;;10.02;6.20;;;;;;;;;;5109715;28;20040;-70
2021/08/26 12:56:41;;;;;;;8.93;5.00;;;;;;;;;;5109386;28;20145;-69
2021/08/26 12:59:08;;;;;;;9.75;5.60;;;;;;;;;;5108894;28;20512;-68
2021/08/26 13:01:38;;;;;;;8.60;4.95;;;;;;;;;;5109250;28;20159;-70
2021/08/26 13:04:14;;;;;;;8.57;5.40;;;;;;;;;;5103264;28;20074;-70
2021/08/26 13:06:42;;;;;;;9.15;5.47;;;;;;;;;;5095767;28;20028;-70
2021/08/26 13:09:10;;;;;;;10.15;5.55;;;;;;;;;;5077875;28;20024;-71
2021/08/26 13:11:37;;;;;;;8.20;5.38;;;;;;;;;;5096334;28;20032;-70
2021/08/26 13:14:04;;;;;;;9.50;5.18;;;;;;;;;;5095348;28;20231;-70
2021/08/26 13:16:30;;;;;;;11.07;6.43;;;;;;;;;;5095850;28;20024;-70
2021/08/26 13:18:56;;;;;;;9.65;4.80;;;;;;;;;;5096128;28;20028;-70
2021/08/26 13:21:22;;;;;;;8.80;5.00;;;;;;;;;;5096040;28;20027;-70
2021/08/26 13:23:49;;;;;;;11.02;6.45;;;;;;;;;;5094682;28;20020;-68
2021/08/26 13:26:15;;;;;;;7.30;4.50;;;;;;;;;;5095436;28;20027;-71
2021/08/26 13:28:41;;;;;;;15.93;6.20;;;;;;;;;;5075999;28;20107;-70
2021/08/26 13:31:10;;;;;;;11.32;5.72;;;;;;;;;;5095191;28;20495;-70
2021/08/26 13:33:36;;;;;;;10.63;5.80;;;;;;;;;;5095895;28;20035;-69
2021/08/26 13:40:18;;;;;;;9.90;5.40;;;;;;;;;;5111387;27;20401;-71
2021/08/26 13:42:45;;;;;;;9.57;5.40;;;;;;;;;;5111260;28;20476;-70
2021/08/26 13:45:12;;;;;;;9.32;4.85;;;;;;;;;;5110891;28;20024;-68
2021/08/26 13:47:38;;;;;;;8.48;4.72;;;;;;;;;;5111315;28;20020;-71
2021/08/26 13:50:04;;;;;;;9.27;5.50;;;;;;;;;;5110921;28;20020;-71
2021/08/26 13:52:31;;;;;;;9.60;5.22;;;;;;;;;;5110704;28;20051;-69
2021/08/26 13:54:57;;;;;;;8.77;4.63;;;;;;;;;;5111163;28;20085;-70
2021/08/26 13:57:23;;;;;;;11.35;5.25;;;;;;;;;;5110838;28;20061;-71
2021/08/26 13:59:49;;;;;;;11.85;5.63;;;;;;;;;;5108764;28;20031;-70
2021/08/26 14:02:15;;;;;;;8.57;4.80;;;;;;;;;;5109634;28;20026;-70
2021/08/26 14:06:11;;;;;;;8.38;4.90;;;;;;;;;;5069841;28;20845;-68
2021/08/26 14:08:37;;;;;;;11.88;5.10;;;;;;;;;;5069434;28;20029;-68
2021/08/26 14:16:29;;;;;;;9.07;4.93;;;;;;;;;;5070331;28;20411;-68
2021/08/26 14:18:56;;;;;;;8.82;5.25;;;;;;;;;;5068949;28;20082;-69
2021/08/26 14:21:22;;;;;;;9.85;5.80;;;;;;;;;;5070649;28;20024;-68
2021/08/26 14:23:48;;;;;;;10.75;5.97;;;;;;;;;;5070595;28;20024;-69
2021/08/26 14:26:15;;;;;;;11.95;6.28;;;;;;;;;;5068933;28;20029;-68
2021/08/26 14:28:42;;;;;;;9.65;5.40;;;;;;;;;;5070580;28;20031;-68
2021/08/26 14:31:08;;;;;;;11.43;6.00;;;;;;;;;;5070490;28;20021;-69
2021/08/26 14:33:35;;;;;;;12.95;5.82;;;;;;;;;;5068836;28;20485;-68
2021/08/26 14:36:02;;;;;;;12.48;6.57;;;;;;;;;;5070229;28;20111;-68
2021/08/26 14:38:28;;;;;;;11.45;5.75;;;;;;;;;;5070297;28;20016;-69
2021/08/26 14:40:54;;;;;;;11.13;6.55;;;;;;;;;;5069986;28;20397;-70
2021/08/26 14:43:21;;;;;;;8.70;5.32;;;;;;;;;;5070516;28;20020;-69
2021/08/26 14:45:47;;;;;;;8.50;5.45;;;;;;;;;;5070115;28;20523;-69
2021/08/26 14:48:13;;;;;;;11.15;5.70;;;;;;;;;;5069903;28;20043;-70
2021/08/26 14:50:39;;;;;;;12.30;5.38;;;;;;;;;;5070099;28;20029;-71
2021/08/26 14:53:06;;;;;;;9.13;5.30;;;;;;;;;;5070388;28;20079;-71
2021/08/26 14:55:33;;;;;;;13.70;7.13;;;;;;;;;;5069563;28;20068;-70
2021/08/26 14:57:59;;;;;;;12.20;6.85;;;;;;;;;;5070064;28;20028;-70
2021/08/26 15:00:25;;;;;;;10.27;5.82;;;;;;;;;;5070142;28;20073;-69
2021/08/26 15:02:52;;;;;;;12.80;6.78;;;;;;;;;;5069561;28;20527;-68
2021/08/26 15:05:18;;;;;;;10.07;5.55;;;;;;;;;;5069792;28;20031;-68
2021/08/26 15:07:44;;;;;;;12.20;6.13;;;;;;;;;;5069698;28;20025;-70
2021/08/26 15:10:11;;;;;;;9.07;4.88;;;;;;;;;;5069375;28;20082;-71
2021/08/26 15:14:29;;;;;;;11.98;6.80;;;;;;;;;;5070804;28;20412;-72
2021/08/26 15:16:55;;;;;;;9.70;5.95;;;;;;;;;;5070647;28;20025;-72
2021/08/26 15:19:22;;;;;;;22.77;11.77;;;;;;;;;;5069382;28;20031;-71
2021/08/26 15:21:48;;;;;;;10.52;6.35;;;;;;;;;;5070767;28;20055;-69
2021/08/26 15:24:14;;;;;;;11.65;6.95;;;;;;;;;;5070132;28;20017;-67
2021/08/26 15:26:40;;;;;;;9.80;5.78;;;;;;;;;;5070478;28;20032;-69
2021/08/26 15:29:07;;;;;;;10.02;6.32;;;;;;;;;;5070153;28;20032;-69
2021/08/26 15:31:38;;;;;;;10.15;5.78;;;;;;;;;;5070292;28;20060;-70
2021/08/26 15:34:05;;;;;;;7.18;4.78;;;;;;;;;;5070397;28;20041;-69
2021/08/26 15:36:31;;;;;;;8.75;5.38;;;;;;;;;;5068740;28;20025;-69
2021/08/26 15:38:58;;;;;;;7.57;4.05;;;;;;;;;;5070330;28;20093;-70
2021/08/26 15:41:51;;;;;;;11.07;4.72;;;;;;;;;;5111300;27;20415;-69
2021/08/26 15:44:18;;;;;;;7.65;4.00;;;;;;;;;;5110873;28;20020;-69
2021/08/26 15:46:46;;;;;;;6.60;3.20;;;;;;;;;;5111180;28;20057;-69
2021/08/26 15:49:13;;;;;;;4.43;2.67;;;;;;;;;;5109928;28;20051;-69
2021/08/26 15:51:39;;;;;;;8.77;2.45;;;;;;;;;;5110783;28;20024;-70
2021/08/26 15:56:14;;;;;;;5.97;3.22;;;;;;;;;;5071093;28;20462;-70
2021/08/26 15:58:53;;;;;;;6.50;3.08;;;;;;;;;;5070496;28;20524;-69
2021/08/26 16:01:22;;;;;;;8.27;3.25;;;;;;;;;;5050697;28;20085;-68
2021/08/26 16:03:52;;;;;;;5.63;3.08;;;;;;;;;;5050858;28;20025;-69
2021/08/26 16:07:40;;;;;;;7.88;3.33;;;;;;;;;;5111389;27;20396;-70
2021/08/26 16:10:07;;;;;;;10.13;5.10;;;;;;;;;;5110349;28;20383;-70
2021/08/26 16:13:55;;;;;;;6.22;2.50;;;;;;;;;;5111894;27;20731;-70
2021/08/26 16:16:21;;;;;;;13.63;3.10;;;;;;;;;;5111335;28;20503;-70
2021/08/26 16:18:47;;;;;;;4.15;1.92;;;;;;;;;;5111076;28;20024;-69
2021/08/26 16:22:27;;;;;;;4.70;2.03;;;;;;;;;;5111608;27;20388;-68
2021/08/26 16:24:53;;;;;;;4.47;2.03;;;;;;;;;;5111581;28;20024;-69
2021/08/26 16:27:19;;;;;;;4.30;1.60;;;;;;;;;;5110955;28;20027;-68
2021/08/26 16:29:45;;;;;;;3.15;1.55;;;;;;;;;;5111326;28;20028;-70
2021/08/26 16:32:13;;;;;;;3.53;1.45;;;;;;;;;;5110814;28;20472;-71
2021/08/26 16:34:39;;;;;;;4.07;1.40;;;;;;;;;;5109954;28;20024;-70
2021/08/26 16:37:05;;;;;;;3.70;1.30;;;;;;;;;;5111393;28;20472;-70
2021/08/26 16:39:53;;;;;;;3.42;1.30;;;;;;;;;;5111601;27;20385;-70